Αρχική σελίδα
METAR-TAF:

METAR-TAF

Αεροδρόμια :

Hutchinson, Κάνσας, Ηνωμένες Πολιτείες Αμερικής

γεωγραφικό πλάτος: 38-04-05N, γεωγραφικό μήκος: 097-51-38W, υψόμετρο: 470 μ

Παρών καιρός

Η αναφορά έγινε 49 λεπτά πριν, στις 22:52 UTC
Άνεμος 11 kt από Α/NA
Θερμοκρασία 31°C
Υγρασία 46%
Πίεση 1015 hPa
Ορατότητα: 16.1 χλμ
Καθαρός ουρανός

METAR: KHUT 222252Z 12011KT 10SM CLR 31/18 A2996 RMK AO2 SLP120 T03110183

Χρόνος: 18:41 (23:41 UTC)

Πρόγνωση Καιρού

Η αναφορά έγινε 16 λεπτά πριν, στις 23:25 UTC
Η πρόγνωση ισχύει από τις 23 στις 00 UTC έως τις 23 στις 24 UTC
Άνεμος 6 kt από Α
Ορατότητα: 10 χλμ
Καθαρός ουρανός
Από 23 στις 0800 UTC
Άνεμος 5 kt από BA
Ορατότητα: 10 χλμ
Διάσπαρτα νέφη σε ύψος 25000 πόδια

TAF: KHUT 222325Z 2300/2324 08006KT P6SM SKC FM230800 04005KT P6SM SCT250

Μετεωρολογικές αναφορές και προγνώσεις για περισσότερα από 4000 αεροδρόμια (δελτία METAR και TAF).

Οι διαθέσιμοι σταθμοί απεικονίζονται στο χάρτη με κίτρινες και κόκκινες κουκκίδες.

Μετακινήστε το ποντίκι πάνω από τις κουκκίδες για να δείτε το όνομα του σταθμού.

Στη συνέχεια, κάντε κλικ για να δείτε τις μετεωρολογικές αναφορές και τις προγνώσεις καιρού.

Για να αλλάξετε το χάρτη: κάντε κλικ στα πράσινα κουμπιά με τον μαύρο σταυρό για να ζουμάρετε, στο πράσινο κουμπί με την παύλα για να αφαιρέσετε το ζουμ ή στα πράσινα βέλη για να αντιπαραβάλλετε χάρτες.


METAR-TAF: